Time;durP1;ratioP1;P1;durP2;ratioP2;P2;SDS_P1;SDS_P2;PMS_P1;PMS_P2;Temp;Humidity;BMP_temperature;BMP_pressure;BME280_temperature;BME280_humidity;BME280_pressure;Samples;Min_cycle;Max_cycle;Signal;HPM_P1;HPM_P2
2022/01/07 00:01:37;;;;;;;12.77;5.10;;;4.90;70.40;;;;;;4994929;28;20478;-76
2022/01/07 00:04:04;;;;;;;13.25;4.82;;;4.90;70.40;;;;;;4995305;28;20038;-75
2022/01/07 00:06:29;;;;;;;12.82;4.75;;;4.90;70.30;;;;;;4990180;28;20429;-76
2022/01/07 00:08:55;;;;;;;14.05;5.28;;;4.90;70.30;;;;;;4995728;28;20133;-76
2022/01/07 00:11:21;;;;;;;16.00;5.50;;;4.90;70.30;;;;;;4995547;28;20037;-76
2022/01/07 00:13:47;;;;;;;9.15;4.35;;;4.90;70.40;;;;;;4993131;28;20046;-76
2022/01/07 00:16:13;;;;;;;13.05;5.05;;;4.90;70.50;;;;;;4995551;28;20041;-75
2022/01/07 00:18:41;;;;;;;12.82;4.72;;;4.90;70.60;;;;;;4984192;28;20538;-76
2022/01/07 00:21:07;;;;;;;11.07;4.55;;;4.90;70.70;;;;;;4990962;28;20092;-75
2022/01/07 00:23:33;;;;;;;8.30;4.60;;;4.90;70.80;;;;;;4983158;28;20430;-78
2022/01/07 00:25:59;;;;;;;15.13;4.85;;;4.90;70.80;;;;;;4973373;28;20050;-76
2022/01/07 00:28:25;;;;;;;10.70;4.82;;;4.90;70.90;;;;;;4983844;28;20086;-75
2022/01/07 00:30:51;;;;;;;13.05;5.20;;;4.90;70.90;;;;;;4989419;28;20038;-76
2022/01/07 00:33:17;;;;;;;11.82;5.00;;;4.90;71.10;;;;;;4979095;28;20051;-76
2022/01/07 00:35:43;;;;;;;8.57;4.45;;;4.90;71.20;;;;;;4978530;28;20046;-76
2022/01/07 00:38:09;;;;;;;12.30;4.38;;;4.90;71.20;;;;;;4995753;28;20150;-76
2022/01/07 00:40:35;;;;;;;9.80;4.32;;;4.90;71.30;;;;;;4979266;28;20050;-76
2022/01/07 00:43:01;;;;;;;8.57;4.15;;;4.90;71.40;;;;;;4993879;28;20035;-76
2022/01/07 00:45:26;;;;;;;13.63;5.05;;;4.90;71.50;;;;;;4995899;28;20049;-76
2022/01/07 00:47:54;;;;;;;9.82;4.00;;;4.90;71.40;;;;;;4995890;28;20054;-76
2022/01/07 00:50:21;;;;;;;14.88;5.43;;;4.90;71.40;;;;;;4996262;28;20043;-76
2022/01/07 00:52:48;;;;;;;12.50;4.72;;;4.90;71.50;;;;;;4994154;28;20042;-76
2022/01/07 00:55:14;;;;;;;9.85;4.80;;;4.90;71.50;;;;;;4996214;28;20082;-76
2022/01/07 00:57:40;;;;;;;8.70;4.03;;;4.90;71.60;;;;;;4993209;28;20042;-76
2022/01/07 01:00:10;;;;;;;12.23;4.55;;;4.90;71.70;;;;;;4974889;28;20058;-76
2022/01/07 01:02:36;;;;;;;10.90;4.53;;;4.90;71.70;;;;;;4994804;28;20042;-76
2022/01/07 01:05:04;;;;;;;13.38;4.65;;;4.80;72.10;;;;;;4978762;28;20401;-76
2022/01/07 01:07:29;;;;;;;12.02;4.75;;;4.80;71.80;;;;;;4984465;28;20062;-76
2022/01/07 01:09:55;;;;;;;13.45;5.75;;;4.80;71.90;;;;;;4995642;28;20121;-76
2022/01/07 01:12:21;;;;;;;15.23;5.00;;;4.80;72.10;;;;;;4995952;28;20054;-77
2022/01/07 01:14:47;;;;;;;9.65;4.28;;;4.80;72.20;;;;;;4973567;28;20042;-77
2022/01/07 01:17:12;;;;;;;13.52;4.72;;;4.80;72.20;;;;;;4993939;28;20442;-77
2022/01/07 01:19:38;;;;;;;11.25;4.72;;;4.80;72.30;;;;;;4994190;28;20039;-77
2022/01/07 01:22:04;;;;;;;11.48;5.13;;;4.80;72.50;;;;;;4985132;28;20461;-77
2022/01/07 01:24:30;;;;;;;10.23;4.70;;;4.70;72.40;;;;;;4988737;28;20080;-76
2022/01/07 01:26:56;;;;;;;14.18;5.68;;;4.70;72.60;;;;;;4978267;28;20498;-77
2022/01/07 01:29:22;;;;;;;10.25;5.10;;;4.70;72.70;;;;;;4994010;28;20038;-76
2022/01/07 01:31:49;;;;;;;11.43;5.38;;;4.70;72.80;;;;;;4995052;28;20541;-77
2022/01/07 01:34:15;;;;;;;12.32;5.13;;;4.70;72.90;;;;;;4995043;28;20406;-76
2022/01/07 01:36:42;;;;;;;8.38;4.88;;;4.70;73.00;;;;;;4995546;28;20042;-76
2022/01/07 01:39:08;;;;;;;15.15;5.53;;;4.60;73.10;;;;;;4994072;28;20050;-76
2022/01/07 01:41:34;;;;;;;12.38;5.72;;;4.60;73.20;;;;;;4995286;28;20402;-76
2022/01/07 01:43:59;;;;;;;12.05;5.07;;;4.60;73.30;;;;;;4991739;28;20045;-77
2022/01/07 01:46:25;;;;;;;13.85;6.00;;;4.60;73.40;;;;;;4958319;28;20489;-77
2022/01/07 01:48:51;;;;;;;11.10;5.93;;;4.50;73.30;;;;;;4977104;28;20150;-77
2022/01/07 01:51:17;;;;;;;11.40;5.32;;;4.50;73.40;;;;;;4977741;28;20046;-77
2022/01/07 01:53:43;;;;;;;10.43;5.55;;;4.50;73.50;;;;;;4977275;28;20050;-76
2022/01/07 01:56:09;;;;;;;10.93;5.63;;;4.50;73.70;;;;;;4995127;28;20478;-76
2022/01/07 01:58:35;;;;;;;8.35;4.93;;;4.50;73.90;;;;;;4995183;28;20081;-76
2022/01/07 02:01:00;;;;;;;15.55;5.93;;;4.50;73.90;;;;;;4977118;28;20475;-76
2022/01/07 02:03:26;;;;;;;9.10;5.43;;;4.50;74.00;;;;;;4972960;28;20138;-76
2022/01/07 02:05:54;;;;;;;11.05;5.90;;;4.50;74.00;;;;;;4994608;28;20053;-77
2022/01/07 02:08:20;;;;;;;15.20;6.45;;;4.50;74.10;;;;;;4995012;28;20093;-77
2022/01/07 02:10:46;;;;;;;12.32;5.70;;;4.50;74.10;;;;;;4989424;28;20050;-76
2022/01/07 02:13:14;;;;;;;11.95;5.20;;;4.40;74.20;;;;;;4961058;28;20061;-77
2022/01/07 02:15:41;;;;;;;12.73;6.43;;;4.40;74.20;;;;;;4985854;28;20046;-77
2022/01/07 02:18:07;;;;;;;12.32;6.35;;;4.40;74.20;;;;;;4994728;28;20042;-77
2022/01/07 02:20:33;;;;;;;12.75;6.47;;;4.40;74.40;;;;;;4982457;28;20082;-76
2022/01/07 02:23:00;;;;;;;14.30;6.22;;;4.40;74.40;;;;;;4994840;28;20042;-77
2022/01/07 02:25:26;;;;;;;9.75;6.20;;;4.40;74.50;;;;;;4993331;28;20113;-77
2022/01/07 02:27:53;;;;;;;12.57;6.32;;;4.40;74.50;;;;;;4977716;28;20081;-77
2022/01/07 02:30:22;;;;;;;9.38;6.57;;;4.40;74.60;;;;;;4992904;28;20105;-77
2022/01/07 02:32:48;;;;;;;11.13;6.10;;;4.40;74.60;;;;;;4976790;28;20058;-77
2022/01/07 02:35:15;;;;;;;11.63;6.28;;;4.40;74.70;;;;;;4993578;28;20030;-75
2022/01/07 02:37:41;;;;;;;11.38;6.47;;;4.40;74.70;;;;;;4994688;28;20405;-76
2022/01/07 02:40:08;;;;;;;13.35;7.05;;;4.40;74.70;;;;;;4991215;28;20038;-76
2022/01/07 02:42:35;;;;;;;9.48;6.47;;;4.40;74.80;;;;;;4976543;28;20128;-76
2022/01/07 02:45:01;;;;;;;13.90;6.82;;;4.40;74.80;;;;;;4993599;28;20092;-75
2022/01/07 02:47:33;;;;;;;10.95;6.32;;;4.40;74.80;;;;;;4993813;28;20050;-76
2022/01/07 02:50:04;;;;;;;11.50;6.43;;;4.40;74.80;;;;;;4974423;28;20438;-75
2022/01/07 02:52:30;;;;;;;13.18;6.68;;;4.30;74.80;;;;;;4994291;28;20058;-76
2022/01/07 02:54:55;;;;;;;12.40;6.78;;;4.30;74.80;;;;;;4991112;28;20046;-76
2022/01/07 02:57:21;;;;;;;10.50;6.32;;;4.40;74.90;;;;;;4974897;28;20058;-76
2022/01/07 02:59:46;;;;;;;13.05;6.93;;;4.30;74.90;;;;;;4957761;28;20053;-77
2022/01/07 03:02:12;;;;;;;11.48;7.60;;;4.30;75.00;;;;;;4973334;28;20054;-77
2022/01/07 03:04:38;;;;;;;10.13;6.57;;;4.30;75.00;;;;;;4992431;28;20038;-76
2022/01/07 03:07:03;;;;;;;10.40;6.80;;;4.30;75.00;;;;;;4978921;28;20059;-77
2022/01/07 03:09:29;;;;;;;11.43;6.63;;;4.30;75.10;;;;;;4979161;28;20086;-77
2022/01/07 03:11:55;;;;;;;10.23;6.88;;;4.30;75.10;;;;;;4984980;28;20518;-76
2022/01/07 03:14:21;;;;;;;11.05;7.20;;;4.30;75.10;;;;;;4988537;28;20049;-75
2022/01/07 03:16:46;;;;;;;11.50;6.85;;;4.30;75.10;;;;;;4984774;28;20402;-75
2022/01/07 03:19:12;;;;;;;11.57;6.28;;;4.40;75.20;;;;;;4961291;28;20098;-75
2022/01/07 03:21:38;;;;;;;13.70;7.68;;;4.30;75.10;;;;;;4983240;28;20039;-75
2022/01/07 03:24:03;;;;;;;11.95;7.45;;;4.40;75.20;;;;;;4961138;28;20043;-75
2022/01/07 03:26:29;;;;;;;13.30;7.22;;;4.30;75.20;;;;;;4979617;28;20039;-75
2022/01/07 03:28:55;;;;;;;11.32;7.05;;;4.30;75.20;;;;;;4998158;28;20050;-76
2022/01/07 03:31:21;;;;;;;12.63;6.03;;;4.30;75.20;;;;;;4990778;28;20057;-75
2022/01/07 03:33:46;;;;;;;11.77;7.18;;;4.40;75.30;;;;;;4978307;28;20540;-75
2022/01/07 03:36:12;;;;;;;10.43;6.72;;;4.40;75.30;;;;;;4986548;28;20038;-75
2022/01/07 03:38:37;;;;;;;11.00;6.93;;;4.30;75.40;;;;;;4997394;28;20070;-75
2022/01/07 03:41:04;;;;;;;8.60;5.78;;;4.40;75.50;;;;;;4995605;28;20038;-75
2022/01/07 03:43:29;;;;;;;9.02;6.65;;;4.40;75.50;;;;;;4976922;28;20393;-75
2022/01/07 03:45:55;;;;;;;12.70;7.03;;;4.40;75.40;;;;;;4995975;28;20125;-75
2022/01/07 03:48:21;;;;;;;15.13;6.97;;;4.40;75.40;;;;;;4989827;28;20085;-76
2022/01/07 03:50:46;;;;;;;10.68;6.55;;;4.40;75.50;;;;;;4978333;28;20126;-74
2022/01/07 03:53:12;;;;;;;13.32;6.72;;;4.40;75.50;;;;;;4979052;28;20430;-75
2022/01/07 03:55:38;;;;;;;11.65;6.90;;;4.40;75.50;;;;;;4969700;28;20492;-75
2022/01/07 03:58:03;;;;;;;10.65;6.45;;;4.40;75.50;;;;;;4984501;28;20129;-75
2022/01/07 04:00:36;;;;;;;8.43;6.68;;;4.40;75.50;;;;;;4997369;28;20045;-74
2022/01/07 04:03:04;;;;;;;8.80;6.95;;;4.40;75.50;;;;;;4981915;28;20085;-75
2022/01/07 04:05:30;;;;;;;12.07;6.63;;;4.40;75.40;;;;;;4995278;28;20078;-75
2022/01/07 04:07:56;;;;;;;12.18;7.07;;;4.40;75.30;;;;;;4983008;28;20495;-75
2022/01/07 04:10:21;;;;;;;9.50;6.10;;;4.40;75.40;;;;;;4987175;28;20050;-75
2022/01/07 04:12:47;;;;;;;9.02;6.22;;;4.40;75.30;;;;;;4986767;28;20375;-74
2022/01/07 04:15:13;;;;;;;11.90;6.65;;;4.40;75.40;;;;;;4972501;28;20129;-75
2022/01/07 04:17:50;;;;;;;11.52;6.78;;;4.40;75.40;;;;;;4995708;28;20047;-75
2022/01/07 04:20:19;;;;;;;10.23;6.32;;;4.40;75.50;;;;;;4996337;28;20490;-75
2022/01/07 04:22:45;;;;;;;8.45;6.15;;;4.40;75.50;;;;;;4977727;28;20133;-76
2022/01/07 04:25:16;;;;;;;8.20;6.35;;;4.40;75.50;;;;;;4992558;28;20046;-75
2022/01/07 04:27:43;;;;;;;10.88;6.55;;;4.40;75.60;;;;;;4986151;28;20081;-75
2022/01/07 04:30:09;;;;;;;8.02;6.22;;;4.40;75.60;;;;;;4996773;28;20506;-75
2022/01/07 04:32:34;;;;;;;8.30;6.32;;;4.40;75.60;;;;;;4990006;28;20490;-75
2022/01/07 04:35:01;;;;;;;9.90;5.93;;;4.40;75.60;;;;;;4959738;28;20086;-75
2022/01/07 04:37:26;;;;;;;9.95;6.20;;;4.40;75.60;;;;;;4977908;28;20054;-75
2022/01/07 04:39:52;;;;;;;6.88;5.53;;;4.40;75.60;;;;;;4996615;28;20068;-75
2022/01/07 04:42:17;;;;;;;7.97;6.03;;;4.40;75.60;;;;;;4994877;28;20042;-75
2022/01/07 04:44:43;;;;;;;9.20;6.63;;;4.40;75.50;;;;;;4996588;28;20044;-76
2022/01/07 04:47:09;;;;;;;8.45;6.25;;;4.40;75.50;;;;;;4976433;28;20054;-76
2022/01/07 04:49:36;;;;;;;8.65;5.90;;;4.50;75.60;;;;;;4959757;28;20042;-75
2022/01/07 04:52:03;;;;;;;9.57;5.47;;;4.40;75.60;;;;;;4987150;28;20080;-74
2022/01/07 04:54:29;;;;;;;10.00;6.25;;;4.40;75.60;;;;;;4994911;28;20073;-75
2022/01/07 04:56:55;;;;;;;8.18;5.50;;;4.40;75.60;;;;;;4978720;28;20497;-75
2022/01/07 04:59:20;;;;;;;7.63;5.45;;;4.40;75.60;;;;;;4978449;28;20050;-76
2022/01/07 05:01:47;;;;;;;9.77;5.82;;;4.40;75.70;;;;;;4978472;28;20474;-75
2022/01/07 05:04:14;;;;;;;7.78;5.15;;;4.50;75.70;;;;;;4993968;28;20054;-75
2022/01/07 05:06:45;;;;;;;7.18;4.97;;;4.50;75.80;;;;;;4978360;28;20054;-75
2022/01/07 05:09:16;;;;;;;9.77;6.05;;;4.50;75.80;;;;;;4995428;28;20042;-75
2022/01/07 05:11:43;;;;;;;6.38;4.82;;;4.50;75.70;;;;;;4996144;28;20058;-74
2022/01/07 05:14:09;;;;;;;7.20;4.82;;;4.50;75.70;;;;;;4988800;28;20069;-75
2022/01/07 05:16:34;;;;;;;9.80;5.38;;;4.50;75.70;;;;;;4995978;28;20557;-75
2022/01/07 05:19:01;;;;;;;7.65;5.40;;;4.50;75.60;;;;;;4992414;28;20050;-74
2022/01/07 05:21:27;;;;;;;5.88;4.70;;;4.50;75.70;;;;;;4995212;28;20057;-75
2022/01/07 05:23:53;;;;;;;6.47;4.97;;;4.50;75.70;;;;;;4983002;28;20125;-75
2022/01/07 05:26:19;;;;;;;6.25;4.57;;;4.50;75.60;;;;;;4978679;28;20375;-75
2022/01/07 05:28:44;;;;;;;6.43;4.57;;;4.50;75.70;;;;;;4988729;28;20121;-75
2022/01/07 05:31:10;;;;;;;6.65;4.70;;;4.50;75.60;;;;;;4977588;28;20052;-76
2022/01/07 05:33:36;;;;;;;6.75;4.63;;;4.50;75.70;;;;;;4970628;28;20070;-75
2022/01/07 05:36:02;;;;;;;6.72;4.55;;;4.50;75.70;;;;;;4978166;28;20512;-75
2022/01/07 05:38:28;;;;;;;7.70;4.93;;;4.50;75.70;;;;;;4993726;28;20586;-75
2022/01/07 05:40:53;;;;;;;9.90;5.47;;;4.50;75.80;;;;;;4977695;28;20077;-76
2022/01/07 05:43:19;;;;;;;6.10;4.70;;;4.50;75.80;;;;;;4994659;28;20031;-75
2022/01/07 05:45:46;;;;;;;5.65;4.75;;;4.50;75.90;;;;;;4976021;28;20530;-75
2022/01/07 05:48:12;;;;;;;6.28;4.82;;;4.50;75.80;;;;;;4992665;28;20507;-75
2022/01/07 05:50:39;;;;;;;5.28;4.20;;;4.50;75.90;;;;;;4993780;28;20081;-75
2022/01/07 05:53:04;;;;;;;6.82;4.70;;;4.50;75.90;;;;;;4974309;28;20050;-76
2022/01/07 05:55:30;;;;;;;7.95;5.45;;;4.60;76.00;;;;;;4967832;28;20108;-76
2022/01/07 05:57:56;;;;;;;5.97;4.50;;;4.60;75.90;;;;;;4974999;28;20533;-75
2022/01/07 06:00:22;;;;;;;7.22;4.75;;;4.60;75.90;;;;;;4986385;28;20043;-76
2022/01/07 06:02:47;;;;;;;6.85;4.90;;;4.60;75.90;;;;;;4994304;28;20081;-75
2022/01/07 06:05:13;;;;;;;7.20;4.60;;;4.60;75.90;;;;;;4992818;28;20154;-76
2022/01/07 06:07:39;;;;;;;7.72;5.00;;;4.60;75.90;;;;;;4993656;28;20054;-76
2022/01/07 06:10:06;;;;;;;6.97;4.78;;;4.60;75.90;;;;;;4975662;28;20046;-76
2022/01/07 06:12:31;;;;;;;7.10;5.53;;;4.60;75.90;;;;;;4983523;28;20034;-76
2022/01/07 06:14:58;;;;;;;8.80;5.18;;;4.60;75.90;;;;;;4992703;28;20512;-76
2022/01/07 06:17:23;;;;;;;6.80;5.57;;;4.60;75.90;;;;;;4977255;28;20058;-76
2022/01/07 06:19:49;;;;;;;7.00;5.55;;;4.70;76.00;;;;;;4986140;28;20050;-76
2022/01/07 06:22:15;;;;;;;8.10;5.93;;;4.60;76.00;;;;;;4986525;28;20390;-75
2022/01/07 06:24:41;;;;;;;7.60;5.32;;;4.70;76.00;;;;;;4986674;28;20046;-77
2022/01/07 06:27:06;;;;;;;7.00;6.13;;;4.70;76.00;;;;;;4976742;28;20435;-76
2022/01/07 06:29:32;;;;;;;8.35;6.10;;;4.80;76.10;;;;;;4971090;28;20059;-76
2022/01/07 06:31:58;;;;;;;8.90;6.18;;;4.70;76.10;;;;;;4992367;28;20041;-74
2022/01/07 06:34:24;;;;;;;8.10;6.18;;;4.70;76.10;;;;;;4988478;28;20077;-75
2022/01/07 06:36:50;;;;;;;8.85;6.45;;;4.70;76.10;;;;;;4972115;28;20053;-76
2022/01/07 06:39:19;;;;;;;7.22;6.30;;;4.70;76.10;;;;;;4974332;28;20069;-77
2022/01/07 06:41:46;;;;;;;8.45;5.78;;;4.80;76.10;;;;;;4985341;28;20058;-76
2022/01/07 06:44:13;;;;;;;7.70;6.20;;;4.80;76.20;;;;;;4975940;28;20060;-75
2022/01/07 06:46:51;;;;;;;8.00;6.63;;;4.80;76.20;;;;;;4971766;28;20054;-76
2022/01/07 06:49:17;;;;;;;8.55;6.25;;;4.80;76.30;;;;;;4975656;28;20045;-75
2022/01/07 06:51:43;;;;;;;10.02;7.53;;;4.80;76.30;;;;;;4976606;28;20050;-75
2022/01/07 06:54:11;;;;;;;9.68;7.38;;;4.80;76.30;;;;;;4993642;28;20046;-75
2022/01/07 06:56:46;;;;;;;9.27;7.22;;;4.80;76.30;;;;;;4993043;28;20046;-75
2022/01/07 06:59:12;;;;;;;7.65;6.85;;;4.80;76.40;;;;;;4994049;28;20050;-75
2022/01/07 07:01:40;;;;;;;9.77;7.47;;;4.80;76.40;;;;;;4986429;28;20381;-75
2022/01/07 07:04:05;;;;;;;10.85;8.07;;;4.80;76.40;;;;;;4975704;28;20070;-76
2022/01/07 07:06:31;;;;;;;9.75;6.75;;;4.80;76.40;;;;;;4978821;28;20069;-75
2022/01/07 07:08:57;;;;;;;9.82;7.25;;;4.80;76.40;;;;;;4989604;28;20049;-75
2022/01/07 07:11:22;;;;;;;9.07;8.05;;;4.80;76.50;;;;;;4973559;28;20054;-75
2022/01/07 07:13:48;;;;;;;10.90;7.93;;;4.80;76.50;;;;;;4993559;28;20121;-76
2022/01/07 07:16:15;;;;;;;10.27;8.05;;;4.80;76.50;;;;;;4992284;28;20050;-75
2022/01/07 07:18:40;;;;;;;10.02;8.32;;;4.80;76.60;;;;;;4972295;28;20085;-75
2022/01/07 07:21:06;;;;;;;12.32;8.90;;;4.80;76.60;;;;;;4989628;28;20406;-75
2022/01/07 07:23:32;;;;;;;13.88;9.15;;;4.80;76.70;;;;;;4993909;28;20371;-76
2022/01/07 07:25:57;;;;;;;14.98;10.15;;;4.90;76.80;;;;;;4991322;28;20047;-75
2022/01/07 07:28:23;;;;;;;14.05;10.13;;;4.90;76.80;;;;;;4975771;28;20062;-75
2022/01/07 07:30:50;;;;;;;11.00;9.43;;;4.90;76.90;;;;;;4972354;28;20057;-76
2022/01/07 07:38:36;;;;;;;14.93;11.02;;;4.90;76.90;;;;;;4976088;28;20078;-77
2022/01/07 07:41:02;;;;;;;15.77;9.82;;;4.90;77.00;;;;;;4975329;28;20147;-77
2022/01/07 07:43:28;;;;;;;11.73;9.75;;;4.90;77.00;;;;;;4976037;28;20053;-78
2022/01/07 07:45:54;;;;;;;13.93;10.32;;;5.00;77.10;;;;;;4986827;28;20035;-77
2022/01/07 07:48:19;;;;;;;14.60;11.90;;;5.00;77.10;;;;;;4976796;28;20505;-77
2022/01/07 07:50:45;;;;;;;14.10;11.23;;;5.00;77.20;;;;;;4991985;28;20057;-77
2022/01/07 07:53:11;;;;;;;15.02;11.07;;;5.00;77.20;;;;;;4977855;28;20050;-77
2022/01/07 07:55:37;;;;;;;14.65;11.30;;;5.00;77.30;;;;;;4995395;28;20081;-78
2022/01/07 07:58:03;;;;;;;16.10;11.98;;;5.00;77.30;;;;;;4996770;28;20429;-77
2022/01/07 08:00:28;;;;;;;15.95;12.38;;;5.00;77.30;;;;;;4995794;28;20379;-77
2022/01/07 08:02:54;;;;;;;13.95;11.23;;;5.00;77.30;;;;;;4994020;28;20482;-77
2022/01/07 08:05:20;;;;;;;17.38;11.50;;;5.10;77.40;;;;;;4990338;28;20047;-78
2022/01/07 08:07:45;;;;;;;16.42;12.05;;;5.10;77.40;;;;;;4980747;28;20078;-77
2022/01/07 08:10:11;;;;;;;15.18;12.73;;;5.10;77.50;;;;;;4989498;28;20510;-76
2022/01/07 08:12:53;;;;;;;17.10;12.32;;;5.10;77.40;;;;;;4978952;28;20069;-76
2022/01/07 08:18:03;;;;;;;19.00;14.23;;;5.20;77.50;;;;;;4990934;28;20049;-77
2022/01/07 08:20:29;;;;;;;19.20;14.07;;;5.20;77.50;;;;;;4987795;28;20470;-77
2022/01/07 08:22:56;;;;;;;18.38;14.43;;;5.10;77.50;;;;;;4977104;28;20050;-77
2022/01/07 08:25:23;;;;;;;20.83;15.25;;;5.20;77.60;;;;;;4976294;28;20050;-77
2022/01/07 08:27:50;;;;;;;17.88;14.23;;;5.20;77.60;;;;;;4994033;28;20086;-77
2022/01/07 08:30:23;;;;;;;19.67;14.75;;;5.20;77.60;;;;;;4993928;28;20042;-77
2022/01/07 08:35:37;;;;;;;19.77;15.70;;;5.30;77.70;;;;;;4995290;28;20070;-77
2022/01/07 08:38:03;;;;;;;19.95;15.10;;;5.30;77.70;;;;;;4994838;28;20050;-77
2022/01/07 08:40:28;;;;;;;18.63;14.35;;;5.30;77.70;;;;;;4977075;28;20042;-76
2022/01/07 08:42:54;;;;;;;19.98;15.18;;;5.30;77.70;;;;;;4971680;28;20054;-77
2022/01/07 08:45:20;;;;;;;19.30;14.32;;;5.30;77.70;;;;;;4992793;28;20030;-77
2022/01/07 08:47:46;;;;;;;22.27;14.68;;;5.30;77.70;;;;;;4978518;28;20054;-76
2022/01/07 08:50:11;;;;;;;22.83;14.90;;;5.30;77.70;;;;;;4993954;28;20513;-76
2022/01/07 08:52:37;;;;;;;20.48;15.93;;;5.40;77.80;;;;;;4985250;28;20047;-76
2022/01/07 08:55:03;;;;;;;23.20;15.10;;;5.40;77.80;;;;;;4993255;28;20053;-76
2022/01/07 08:57:29;;;;;;;20.58;14.75;;;5.40;77.70;;;;;;4995534;28;20417;-76
2022/01/07 08:59:54;;;;;;;23.08;15.43;;;5.40;77.70;;;;;;4996404;28;20047;-76
2022/01/07 09:02:20;;;;;;;19.60;14.70;;;5.40;77.70;;;;;;4977732;28;20045;-77
2022/01/07 09:04:45;;;;;;;20.45;15.80;;;5.40;77.70;;;;;;4993988;28;20038;-77
2022/01/07 09:07:11;;;;;;;18.35;15.88;;;5.40;77.70;;;;;;4991487;28;20135;-77
2022/01/07 09:09:37;;;;;;;22.55;16.48;;;5.40;77.60;;;;;;4973177;28;20494;-77
2022/01/07 09:12:04;;;;;;;24.67;16.33;;;5.50;77.80;;;;;;4994514;28;20042;-76
2022/01/07 09:14:29;;;;;;;23.08;17.13;;;5.50;77.80;;;;;;4981344;28;20043;-77
2022/01/07 09:16:55;;;;;;;25.50;15.48;;;5.50;77.80;;;;;;4979179;28;20057;-76
2022/01/07 09:19:20;;;;;;;22.02;16.15;;;5.50;77.80;;;;;;4978038;28;20148;-77
2022/01/07 09:21:46;;;;;;;22.35;16.80;;;5.50;77.80;;;;;;4959494;28;20121;-76
2022/01/07 09:24:12;;;;;;;22.73;17.58;;;5.60;77.90;;;;;;4982031;28;20386;-76
2022/01/07 09:26:37;;;;;;;21.52;15.70;;;5.60;77.90;;;;;;4995578;28;20132;-77
2022/01/07 09:29:03;;;;;;;20.88;16.60;;;5.60;78.00;;;;;;4990294;28;20065;-77
2022/01/07 09:31:29;;;;;;;20.98;15.27;;;5.60;78.00;;;;;;4994971;28;20173;-77
2022/01/07 09:33:55;;;;;;;20.52;14.13;;;5.60;77.90;;;;;;4976038;28;20553;-76
2022/01/07 09:36:20;;;;;;;21.83;13.93;;;5.70;78.00;;;;;;4995404;28;20048;-77
2022/01/07 09:38:46;;;;;;;12.38;7.85;;;5.70;77.90;;;;;;4986322;28;20041;-77
2022/01/07 09:41:12;;;;;;;12.05;7.22;;;5.70;77.70;;;;;;4995511;28;20065;-77
2022/01/07 09:43:37;;;;;;;8.70;7.00;;;5.70;77.30;;;;;;4987568;28;20078;-77
2022/01/07 09:46:03;;;;;;;9.52;6.93;;;5.70;77.00;;;;;;4972911;28;20137;-77
2022/01/07 09:48:29;;;;;;;12.07;10.77;;;5.70;76.80;;;;;;4986625;28;20081;-79
2022/01/07 09:50:55;;;;;;;8.68;5.78;;;5.70;76.50;;;;;;4972101;28;20066;-77
2022/01/07 09:53:21;;;;;;;5.55;3.78;;;5.60;76.20;;;;;;4988123;28;20066;-77
2022/01/07 09:55:46;;;;;;;7.25;4.03;;;5.60;76.10;;;;;;4990997;28;20093;-76
2022/01/07 09:58:13;;;;;;;5.05;3.50;;;5.60;76.10;;;;;;4976510;28;21202;-76
2022/01/07 10:00:44;;;;;;;4.20;2.10;;;5.60;76.10;;;;;;4976963;28;20078;-76
2022/01/07 10:03:13;;;;;;;8.02;2.92;;;5.60;76.10;;;;;;4994277;28;20089;-76
2022/01/07 10:05:42;;;;;;;5.78;3.03;;;5.60;76.00;;;;;;4994732;28;20089;-76
2022/01/07 10:08:18;;;;;;;4.03;2.85;;;5.70;76.10;;;;;;4976852;28;20054;-77
2022/01/07 10:10:45;;;;;;;4.60;2.55;;;5.60;76.00;;;;;;4994381;28;20058;-77
2022/01/07 10:13:11;;;;;;;4.85;2.85;;;5.60;75.90;;;;;;4993556;28;20062;-76
2022/01/07 10:15:39;;;;;;;6.38;3.50;;;5.60;75.90;;;;;;4993728;28;20078;-75
2022/01/07 10:18:10;;;;;;;5.78;2.95;;;5.60;75.90;;;;;;4994341;28;20049;-76
2022/01/07 10:20:40;;;;;;;6.38;3.60;;;5.60;75.90;;;;;;4994649;28;20398;-77
2022/01/07 10:23:23;;;;;;;4.88;3.42;;;5.60;75.90;;;;;;4994358;28;20121;-77
2022/01/07 10:25:53;;;;;;;6.18;3.72;;;5.60;75.90;;;;;;4983428;28;20038;-77
2022/01/07 10:28:20;;;;;;;7.93;4.70;;;5.60;76.00;;;;;;4994327;28;20030;-76
2022/01/07 10:30:51;;;;;;;7.60;4.20;;;5.60;76.00;;;;;;4994563;28;20058;-76
2022/01/07 10:33:41;;;;;;;7.97;3.65;;;5.60;76.20;;;;;;4993782;28;20073;-76
2022/01/07 10:36:06;;;;;;;8.43;3.42;;;5.60;76.30;;;;;;4979926;28;20053;-76
2022/01/07 10:38:45;;;;;;;7.20;3.40;;;5.70;76.40;;;;;;4992865;28;20050;-76
2022/01/07 10:41:12;;;;;;;5.88;2.88;;;5.70;76.50;;;;;;4994121;28;20041;-76
2022/01/07 10:43:38;;;;;;;7.43;3.30;;;5.70;76.60;;;;;;4992712;28;20050;-76
2022/01/07 10:46:16;;;;;;;8.52;3.42;;;5.70;76.60;;;;;;4994162;28;20043;-76
2022/01/07 10:48:42;;;;;;;8.38;3.30;;;5.80;77.10;;;;;;4976450;28;20038;-76
2022/01/07 10:51:18;;;;;;;7.38;3.67;;;5.80;76.70;;;;;;4993599;28;20042;-76
2022/01/07 10:53:49;;;;;;;6.82;3.70;;;5.80;76.70;;;;;;4993588;28;20073;-76
2022/01/07 10:56:20;;;;;;;9.98;5.63;;;5.80;76.80;;;;;;4992311;28;20529;-75
2022/01/07 10:58:49;;;;;;;11.80;6.45;;;5.90;77.00;;;;;;4992683;28;20406;-76
2022/01/07 11:01:20;;;;;;;11.10;6.80;;;5.90;77.00;;;;;;4976999;28;20038;-76
2022/01/07 11:03:47;;;;;;;9.43;7.05;;;5.90;77.10;;;;;;4976079;28;20080;-76
2022/01/07 11:06:12;;;;;;;14.18;8.52;;;6.00;77.00;;;;;;4973013;28;20105;-75
2022/01/07 11:08:40;;;;;;;13.35;9.02;;;6.00;77.00;;;;;;4992690;28;20053;-76
2022/01/07 11:11:08;;;;;;;10.95;7.63;;;6.00;76.90;;;;;;4973507;28;20051;-76
2022/01/07 11:13:35;;;;;;;13.70;8.27;;;6.10;76.90;;;;;;4975124;28;20425;-76
2022/01/07 11:16:05;;;;;;;12.60;8.80;;;6.10;76.80;;;;;;4974748;28;20497;-76
2022/01/07 11:18:32;;;;;;;12.20;8.52;;;6.10;76.80;;;;;;4993192;28;20431;-76
2022/01/07 11:20:59;;;;;;;14.85;9.23;;;6.10;76.70;;;;;;4996347;28;20042;-78
2022/01/07 11:23:31;;;;;;;12.48;7.78;;;6.10;76.70;;;;;;4991904;28;20039;-77
2022/01/07 11:26:06;;;;;;;12.80;9.35;;;6.10;76.60;;;;;;4971514;28;20086;-78
2022/01/07 11:28:32;;;;;;;14.18;7.88;;;6.10;76.60;;;;;;4991414;28;20742;-78
2022/01/07 11:31:03;;;;;;;13.60;7.20;;;6.10;76.50;;;;;;4993341;28;21207;-77
2022/01/07 11:33:30;;;;;;;11.50;5.65;;;6.20;76.40;;;;;;4993506;28;20104;-77
2022/01/07 11:35:56;;;;;;;8.50;3.67;;;6.10;76.20;;;;;;4974658;28;20189;-77
2022/01/07 11:38:59;;;;;;;10.85;5.03;;;6.10;76.00;;;;;;4991831;28;20057;-77
2022/01/07 11:41:41;;;;;;;6.90;3.85;;;6.10;75.60;;;;;;4897855;29;20080;-78
2022/01/07 11:44:12;;;;;;;7.03;2.70;;;6.10;75.60;;;;;;4913137;29;20068;-78
2022/01/07 11:46:38;;;;;;;5.75;2.63;;;6.10;75.40;;;;;;4895165;29;20480;-76
2022/01/07 11:49:05;;;;;;;5.60;2.40;;;6.10;75.00;;;;;;4913207;29;20047;-77
2022/01/07 11:51:39;;;;;;;5.50;2.13;;;6.10;74.90;;;;;;4913630;29;20296;-76
2022/01/07 11:54:06;;;;;;;;;;;6.10;74.70;;;;;;4898122;29;20166;-76
2022/01/07 11:56:33;;;;;;;3.53;1.60;;;6.10;74.70;;;;;;4897694;29;20009;-76
2022/01/07 11:59:10;;;;;;;8.40;1.63;;;6.10;74.90;;;;;;4913680;29;20096;-77
2022/01/07 12:01:40;;;;;;;7.97;1.95;;;6.10;74.50;;;;;;4897392;29;20127;-76
2022/01/07 12:04:14;;;;;;;5.22;1.70;;;6.00;74.50;;;;;;4898535;29;20064;-76
2022/01/07 12:06:39;;;;;;;7.97;1.92;;;6.10;74.60;;;;;;4901886;29;20080;-77
2022/01/07 12:09:06;;;;;;;7.68;1.90;;;6.00;74.40;;;;;;4897571;29;20055;-77
2022/01/07 12:11:40;;;;;;;5.38;2.30;;;6.00;74.30;;;;;;4901105;29;20063;-77
2022/01/07 12:14:12;;;;;;;6.18;2.05;;;6.00;74.30;;;;;;4929336;29;20088;-77
2022/01/07 12:16:39;;;;;;;5.88;1.70;;;6.00;74.30;;;;;;4932527;28;20187;-76
2022/01/07 12:19:17;;;;;;;7.57;1.75;;;6.00;74.40;;;;;;4985844;28;20738;-77
2022/01/07 12:21:44;;;;;;;7.32;1.77;;;6.00;74.40;;;;;;4973977;28;20057;-76
2022/01/07 12:24:21;;;;;;;9.38;1.23;;;6.00;74.60;;;;;;4974115;28;20046;-77
2022/01/07 12:26:47;;;;;;;5.70;1.42;;;6.00;74.70;;;;;;4972581;28;20038;-76
2022/01/07 12:29:17;;;;;;;5.65;1.30;;;6.00;74.70;;;;;;4974293;28;20077;-75
2022/01/07 12:31:49;;;;;;;8.82;1.95;;;6.10;75.00;;;;;;4988669;28;20046;-77
2022/01/07 12:34:34;;;;;;;9.60;2.35;;;6.10;74.80;;;;;;4991410;28;20042;-77
2022/01/07 12:37:07;;;;;;;8.20;2.00;;;6.10;74.70;;;;;;4987067;28;20038;-77
2022/01/07 12:39:39;;;;;;;4.95;1.83;;;6.10;74.70;;;;;;4973059;28;20785;-77
2022/01/07 12:42:06;;;;;;;7.65;1.98;;;6.00;74.60;;;;;;4987614;28;20068;-77
2022/01/07 12:44:36;;;;;;;5.82;1.63;;;6.10;74.70;;;;;;4978167;28;20065;-77
2022/01/07 12:47:02;;;;;;;9.95;1.77;;;6.10;74.70;;;;;;4968570;28;20046;-77
2022/01/07 12:49:33;;;;;;;5.35;1.63;;;6.10;74.80;;;;;;4989032;28;20121;-77
2022/01/07 12:52:17;;;;;;;9.38;2.45;;;6.10;75.00;;;;;;4982616;28;20050;-77
2022/01/07 12:54:57;;;;;;;8.50;2.45;;;6.10;75.10;;;;;;4991207;28;20050;-77
2022/01/07 12:57:33;;;;;;;7.35;2.63;;;6.10;75.10;;;;;;4979678;28;20521;-77
2022/01/07 13:00:29;;;;;;;6.13;2.80;;;6.10;75.10;;;;;;4959296;28;20054;-76
2022/01/07 13:03:02;;;;;;;5.22;2.55;;;6.20;75.10;;;;;;4911684;29;20246;-77